M/T Goviken — 9HA2718 — position and weather

sailwx.info

Track history (hours):
 
Tides and Currents Weather Stations Pressure Air Temp Water Temp Dewpoint Dewpoint Depression Visibility Wind Speed Wind Dir Waves Ship Positions

M/T Goviken

Last reported at 2016-Jul-30 06:33 UTC. Time now 2016-Jul-31 05:25 UTC.
Position N 58°14' E 011°12'.

Length 88 m; draft 6.6 m.

Type: Ship (hazmat cat A). MMSI: 215389000.

Date/timePositionNaut miles runAvg speedWind from/ knotsBaromVisibWave heightAir tempDewpointWater temp
2016-Jul-30 06:33N 58°14' E 011°12'10 9.7
2016-Jul-30 05:33N 58°21' E 011°25'4 0.2
2016-Jul-29 04:33N 58°18' E 011°20'1110.8
2016-Jul-29 03:33N 58°12' E 011°04'13 9.7
2016-Jul-29 02:11N 58°05' E 010°43'1710.3
2016-Jul-29 00:33N 57°55' E 010°16'27610.5
2016-Jul-27 22:15N 54°17' E 005°12'811.1
2016-Jul-27 21:33N 54°10' E 005°09'1110.8
2016-Jul-27 20:34N 53°60' E 005°04'1110.5
2016-Jul-27 19:33N 53°50' E 004°58'1110.6
2016-Jul-27 18:28N 53°39' E 004°51'3110.4
2016-Jul-27 15:27N 53°10' E 004°31'910.0
2016-Jul-27 14:33N 53°02' E 004°24'1010.0
2016-Jul-27 13:33N 52°53' E 004°16'1010.1
2016-Jul-27 12:33N 52°44' E 004°08'1010.4
2016-Jul-27 11:34N 52°37' E 003°57'1010.5
2016-Jul-27 10:34N 52°26' E 003°54'1010.3
2016-Jul-27 09:33N 52°16' E 003°52'1110.6
2016-Jul-27 08:33N 52°06' E 003°55'9 8.9
2016-Jul-27 07:34N 51°59' E 004°05'9 9.2
2016-Jul-27 06:33N 51°54' E 004°17'9 8.8
2016-Jul-27 05:33N 51°50' E 004°30'8 8.4
2016-Jul-27 04:33N 51°43' E 004°37'3 2.6
2016-Jul-27 03:30N 51°42' E 004°34'0 0.0
2016-Jul-27 02:09N 51°42' E 004°34'0 0.0
2016-Jul-27 01:12N 51°41' E 004°34'0 0.0
2016-Jul-27 00:12N 51°42' E 004°34'0 0.0
2016-Jul-26 22:24N 51°42' E 004°34'0 0.0
2016-Jul-26 13:30N 51°41' E 004°34'0 0.1
2016-Jul-26 05:30N 51°41' E 004°34'0 0.3
2016-Jul-26 04:04N 51°42' E 004°34'0 0.0
2016-Jul-26 03:31N 51°42' E 004°34'0 0.0
2016-Jul-25 18:31N 51°42' E 004°34'0 0.0
2016-Jul-25 17:31N 51°42' E 004°34'0 0.1
2016-Jul-25 16:33N 51°41' E 004°34'6 6.1
2016-Jul-25 15:33N 51°47' E 004°38'7 6.9
2016-Jul-25 14:33N 51°50' E 004°27'8 7.6
2016-Jul-25 13:33N 51°54' E 004°17'9 9.2
2016-Jul-25 12:33N 51°59' E 004°04'1010.4
2016-Jul-25 11:33N 52°02' E 003°48'8 3.6
2016-Jul-25 09:15N 52°09' E 003°41'0 0.0
2016-Jul-25 08:05N 52°09' E 003°41'0 0.0
2016-Jul-25 06:29N 52°09' E 003°41'0 0.0
2016-Jul-25 02:29N 52°09' E 003°41'6 6.2
2016-Jul-25 01:33N 52°14' E 003°46'1010.6
2016-Jul-25 00:33N 52°24' E 003°49'1110.7
2016-Jul-24 23:33N 52°35' E 003°53'1010.6
2016-Jul-24 22:33N 52°45' E 003°56'1110.9
2016-Jul-24 21:34N 52°56' E 003°59'1010.5
2016-Jul-24 20:33N 53°03' E 004°11'19 9.4
2016-Jul-24 18:33N 53°19' E 004°29'3710.6
2016-Jul-24 15:04N 53°54' E 004°50'611.3
2016-Jul-24 14:33N 53°59' E 004°54'1211.2
2016-Jul-24 13:30N 54°10' E 005°01'1010.9
2016-Jul-24 12:33N 54°20' E 005°09'16311.6
2016-Jul-23 22:31N 56°40' E 007°34'3911.5
2016-Jul-23 19:10N 57°12' E 008°14'711.4
2016-Jul-23 18:33N 57°15' E 008°26'6411.7
2016-Jul-23 13:06N 57°48' E 010°08'711.8
2016-Jul-23 12:33N 57°48' E 010°20'1111.4
2016-Jul-23 11:33N 57°48' E 010°41'1111.4
2016-Jul-23 10:33N 57°42' E 010°59'1211.7
2016-Jul-23 09:33N 57°33' E 011°15'1111.2
2016-Jul-23 08:34N 57°25' E 011°28'1211.7
2016-Jul-23 07:33N 57°14' E 011°36'1111.4
2016-Jul-23 06:33N 57°03' E 011°42'2110.7
2016-Jul-23 04:33N 56°42' E 011°51'1212.0
2016-Jul-23 03:33N 56°32' E 011°40'1212.0
2016-Jul-23 02:33N 56°22' E 011°29'1612.0
2016-Jul-23 01:13N 56°08' E 011°13'812.1
2016-Jul-23 00:33N 56°01' E 011°05'1212.3
2016-Jul-22 23:33N 55°51' E 010°52'  
Track history (hours):
 
Tides and Currents Weather Stations Pressure Air Temp Water Temp Dewpoint Dewpoint Depression Visibility Wind Speed Wind Dir Waves Ship Positions

M/T Goviken

Last reported at 2016-Jul-30 06:33 UTC. Time now 2016-Jul-31 05:25 UTC.
Position N 58°14' E 011°12'.

Length 88 m; draft 6.6 m.

Type: Ship (hazmat cat A). MMSI: 215389000.

Date/timePositionNaut miles runAvg speedWind from/ knotsBaromVisibWave heightAir tempDewpointWater temp
2016-Jul-30 06:33N 58°14' E 011°12'10 9.7
2016-Jul-30 05:33N 58°21' E 011°25'4 0.2
2016-Jul-29 04:33N 58°18' E 011°20'1110.8
2016-Jul-29 03:33N 58°12' E 011°04'13 9.7
2016-Jul-29 02:11N 58°05' E 010°43'1710.3
2016-Jul-29 00:33N 57°55' E 010°16'27610.5
2016-Jul-27 22:15N 54°17' E 005°12'811.1
2016-Jul-27 21:33N 54°10' E 005°09'1110.8
2016-Jul-27 20:34N 53°60' E 005°04'1110.5
2016-Jul-27 19:33N 53°50' E 004°58'1110.6
2016-Jul-27 18:28N 53°39' E 004°51'3110.4
2016-Jul-27 15:27N 53°10' E 004°31'910.0
2016-Jul-27 14:33N 53°02' E 004°24'1010.0
2016-Jul-27 13:33N 52°53' E 004°16'1010.1
2016-Jul-27 12:33N 52°44' E 004°08'1010.4
2016-Jul-27 11:34N 52°37' E 003°57'1010.5
2016-Jul-27 10:34N 52°26' E 003°54'1010.3
2016-Jul-27 09:33N 52°16' E 003°52'1110.6
2016-Jul-27 08:33N 52°06' E 003°55'9 8.9
2016-Jul-27 07:34N 51°59' E 004°05'9 9.2
2016-Jul-27 06:33N 51°54' E 004°17'9 8.8
2016-Jul-27 05:33N 51°50' E 004°30'8 8.4
2016-Jul-27 04:33N 51°43' E 004°37'3 2.6
2016-Jul-27 03:30N 51°42' E 004°34'0 0.0
2016-Jul-27 02:09N 51°42' E 004°34'0 0.0
2016-Jul-27 01:12N 51°41' E 004°34'0 0.0
2016-Jul-27 00:12N 51°42' E 004°34'0 0.0
2016-Jul-26 22:24N 51°42' E 004°34'0 0.0
2016-Jul-26 13:30N 51°41' E 004°34'0 0.1
2016-Jul-26 05:30N 51°41' E 004°34'0 0.3
2016-Jul-26 04:04N 51°42' E 004°34'0 0.0
2016-Jul-26 03:31N 51°42' E 004°34'0 0.0
2016-Jul-25 18:31N 51°42' E 004°34'0 0.0
2016-Jul-25 17:31N 51°42' E 004°34'0 0.1
2016-Jul-25 16:33N 51°41' E 004°34'6 6.1
2016-Jul-25 15:33N 51°47' E 004°38'7 6.9
2016-Jul-25 14:33N 51°50' E 004°27'8 7.6
2016-Jul-25 13:33N 51°54' E 004°17'9 9.2
2016-Jul-25 12:33N 51°59' E 004°04'1010.4
2016-Jul-25 11:33N 52°02' E 003°48'8 3.6
2016-Jul-25 09:15N 52°09' E 003°41'0 0.0
2016-Jul-25 08:05N 52°09' E 003°41'0 0.0
2016-Jul-25 06:29N 52°09' E 003°41'0 0.0
2016-Jul-25 02:29N 52°09' E 003°41'6 6.2
2016-Jul-25 01:33N 52°14' E 003°46'1010.6
2016-Jul-25 00:33N 52°24' E 003°49'1110.7
2016-Jul-24 23:33N 52°35' E 003°53'1010.6
2016-Jul-24 22:33N 52°45' E 003°56'1110.9
2016-Jul-24 21:34N 52°56' E 003°59'1010.5
2016-Jul-24 20:33N 53°03' E 004°11'19 9.4
2016-Jul-24 18:33N 53°19' E 004°29'3710.6
2016-Jul-24 15:04N 53°54' E 004°50'611.3
2016-Jul-24 14:33N 53°59' E 004°54'1211.2
2016-Jul-24 13:30N 54°10' E 005°01'1010.9
2016-Jul-24 12:33N 54°20' E 005°09'16311.6
2016-Jul-23 22:31N 56°40' E 007°34'3911.5
2016-Jul-23 19:10N 57°12' E 008°14'711.4
2016-Jul-23 18:33N 57°15' E 008°26'6411.7
2016-Jul-23 13:06N 57°48' E 010°08'711.8
2016-Jul-23 12:33N 57°48' E 010°20'1111.4
2016-Jul-23 11:33N 57°48' E 010°41'1111.4
2016-Jul-23 10:33N 57°42' E 010°59'1211.7
2016-Jul-23 09:33N 57°33' E 011°15'1111.2
2016-Jul-23 08:34N 57°25' E 011°28'1211.7
2016-Jul-23 07:33N 57°14' E 011°36'1111.4
2016-Jul-23 06:33N 57°03' E 011°42'2110.7
2016-Jul-23 04:33N 56°42' E 011°51'1212.0
2016-Jul-23 03:33N 56°32' E 011°40'1212.0
2016-Jul-23 02:33N 56°22' E 011°29'1612.0
2016-Jul-23 01:13N 56°08' E 011°13'812.1
2016-Jul-23 00:33N 56°01' E 011°05'1212.3
2016-Jul-22 23:33N 55°51' E 010°52'  

Dump ship's entire track history